עמוד ראשי
METAR-TAF:

METAR-TAF

שדות תעופה :

טגוסיגלפה, הונדורס

קו רוחב: 14-03N, קו אורך: 087-13W, גובה: 994מטר

תצפית מזג אוויר נוכחית

הדו"ח נערך לפני 19דקות, בשעה 07:00 UTC
רוח 4קשר מכיוון דרום-מזרח
טמפרטורת 23 צלסיוס
לחות 83%
לחץ 1018 hPa
ראות 10 קילומטר או יותר
עננים בינוניים בגובה 3400רגל

METAR: MHTG 270700Z 14004KT 9999 BKN034 23/20 Q1018 A3006 NOSIG

זמן: 01:19 (07:19 UTC)

תחזית

הדו"ח נערך לפני 3 שעות ו 49דקות, בשעה 03:30 UTC
תחזית בתוקף מ 27 ב 06 UTC עד 28 ב 06 UTC
רוח 4קשר מכיוון צפון
ראות 10 קילומטר או יותר
עננים פזורים בגובה 3000רגל
יעשה מ
27 ב 10 UTC עד 27 ב 12 UTC
ראות: 6000מטר
עננים בינוניים בגובה 2800רגל
זמנית מ -
27 ב 20 UTC עד 28 ב 01 UTC
ראות: 6000מטר
עננים פזורים בגובה 3200רגל , קומולוס מיגדלי.
מעט עננים בגובה 3400רגל , קומולונימבוס.
גשם
יעשה מ
28 ב 01 UTC עד 28 ב 03 UTC
ראות 10 קילומטר או יותר
עננים פזורים בגובה 3000רגל

TAF: MHTG 270330Z 2706/2806 01004KT 9999 SCT030 TX32/2620Z TN20/2712Z BECMG 2710/2712 6000 BKN028 TEMPO 2720/2801 6000 RA SCT032TCU FEW034CB BECMG 2801/2803 9999 NSW SCT030

תצפיות ותחזיות מזג אוויר לגבי יותר מ- 4,000 שדות תעופה ברחבי העולם. דוחות METAR ו- TAF.

התחנות הזמינות מסומנות בנקודות צהובות ואדומות על גבי המפה.

העבר את העכבר לנקודה הצבעונית על מנת לראות את שם התחנה.

לאחר מכן, לחץ כדי לראות את תוכן ואת תחזיות מזג האוויר.

כדי לשנות את המפה: לחץ על הכפתורים הירוקים עם הפלוס השחור כדי להתקרב; על הכפתור הירוק עם המקף כדי להתרחק; או בחיצים הירוקים למפות סמוכות.


METAR-TAF: